createdAt,value
2019-01-18T00:01:26.466Z,8.79
2019-01-18T00:03:54.838Z,8.57
2019-01-18T00:06:23.162Z,9.35
2019-01-18T00:08:52.089Z,10.73
2019-01-18T00:11:20.352Z,10.59
2019-01-18T00:13:48.605Z,10.26
2019-01-18T00:16:16.882Z,10.10
2019-01-18T00:18:45.130Z,10.46
2019-01-18T00:21:13.409Z,10.57
2019-01-18T00:23:41.746Z,10.76
2019-01-18T00:26:10.085Z,10.12
2019-01-18T00:28:38.439Z,9.84
2019-01-18T00:31:07.154Z,10.11
2019-01-18T00:33:35.414Z,10.58
2019-01-18T00:36:03.664Z,9.73
2019-01-18T00:38:31.939Z,9.72
2019-01-18T00:41:00.194Z,10.17
2019-01-18T00:43:28.454Z,9.76
2019-01-18T00:45:56.716Z,9.78
2019-01-18T00:48:24.991Z,9.78
2019-01-18T00:50:53.263Z,9.84
2019-01-18T00:53:21.531Z,9.64
2019-01-18T00:55:49.810Z,10.01
2019-01-18T00:58:18.079Z,9.54
2019-01-18T01:00:46.386Z,9.32
2019-01-18T01:03:14.620Z,9.09
2019-01-18T01:05:42.887Z,9.13
2019-01-18T01:08:11.131Z,9.34
2019-01-18T01:10:39.476Z,9.55
2019-01-18T01:13:07.743Z,9.36
2019-01-18T01:15:36.073Z,9.49
2019-01-18T01:18:04.419Z,9.90
2019-01-18T01:20:32.716Z,9.95
2019-01-18T01:23:01.038Z,10.12
2019-01-18T01:25:29.364Z,10.24
2019-01-18T01:27:57.634Z,10.05
2019-01-18T01:30:26.285Z,9.43
2019-01-18T01:32:54.746Z,9.34
2019-01-18T01:35:23.006Z,9.33
2019-01-18T01:37:51.422Z,9.59
2019-01-18T01:40:22.499Z,9.03
2019-01-18T01:42:50.841Z,9.66
2019-01-18T01:45:19.211Z,9.51
2019-01-18T01:47:47.495Z,10.55
2019-01-18T01:50:18.379Z,9.97
2019-01-18T01:52:46.658Z,9.76
2019-01-18T01:55:15.012Z,10.21
2019-01-18T01:57:43.293Z,10.41
2019-01-18T02:00:17.196Z,10.05
2019-01-18T02:02:45.451Z,9.81
2019-01-18T02:05:13.813Z,10.47
2019-01-18T02:07:42.154Z,9.62
2019-01-18T02:10:13.034Z,10.37
2019-01-18T02:12:41.297Z,8.72
2019-01-18T02:15:12.220Z,9.00
2019-01-18T02:17:40.494Z,9.71
2019-01-18T02:20:12.269Z,10.25
2019-01-18T02:22:40.548Z,9.44
2019-01-18T02:25:09.330Z,8.46
2019-01-18T02:27:37.576Z,9.61
2019-01-18T02:30:09.070Z,10.37
2019-01-18T02:32:37.385Z,9.64
2019-01-18T02:35:06.863Z,9.98
2019-01-18T02:37:35.117Z,9.62
2019-01-18T02:40:04.826Z,9.89
2019-01-18T02:42:33.079Z,9.85
2019-01-18T02:45:01.351Z,9.27
2019-01-18T02:47:29.625Z,9.14
2019-01-18T02:49:57.883Z,10.08
2019-01-18T02:52:26.139Z,9.37
2019-01-18T02:54:54.403Z,8.87
2019-01-18T02:57:22.735Z,9.52
2019-01-18T02:59:51.000Z,9.45
2019-01-18T03:02:19.339Z,9.18
2019-01-18T03:04:47.598Z,9.34
2019-01-18T03:07:15.869Z,8.69
2019-01-18T03:09:44.123Z,9.77
2019-01-18T03:12:12.392Z,8.46
2019-01-18T03:14:40.637Z,9.30
2019-01-18T03:17:08.910Z,9.55
2019-01-18T03:19:37.165Z,9.52
2019-01-18T03:22:05.432Z,8.78
2019-01-18T03:24:33.697Z,9.54
2019-01-18T03:27:01.958Z,10.03
2019-01-18T03:29:30.225Z,10.38
2019-01-18T03:31:58.484Z,10.05
2019-01-18T03:34:26.767Z,9.20
2019-01-18T03:36:55.006Z,9.29
2019-01-18T03:39:23.269Z,9.66
2019-01-18T03:41:51.546Z,9.73
2019-01-18T03:44:19.807Z,9.62
2019-01-18T03:46:48.050Z,9.74
2019-01-18T03:49:16.328Z,10.34
2019-01-18T03:51:44.603Z,10.19
2019-01-18T03:54:12.871Z,10.20
2019-01-18T03:56:41.121Z,10.48
2019-01-18T03:59:09.516Z,9.95
2019-01-18T04:01:37.803Z,11.05
2019-01-18T04:04:07.030Z,9.23
2019-01-18T04:06:35.285Z,9.94
2019-01-18T04:09:05.300Z,9.60
2019-01-18T04:11:33.576Z,8.74
2019-01-18T04:14:01.825Z,8.40
2019-01-18T04:16:30.739Z,9.09
2019-01-18T04:18:59.008Z,8.99
2019-01-18T04:21:27.778Z,9.16
2019-01-18T04:23:56.009Z,8.99
2019-01-18T04:26:24.269Z,8.71
2019-01-18T04:28:52.548Z,8.26
2019-01-18T04:31:20.802Z,8.92
2019-01-18T04:33:49.057Z,9.07
2019-01-18T04:36:17.340Z,9.41
2019-01-18T04:38:45.603Z,9.07
2019-01-18T04:41:13.886Z,8.87
2019-01-18T04:43:42.178Z,9.24
2019-01-18T04:46:10.438Z,9.50
2019-01-18T04:48:38.704Z,9.36
2019-01-18T04:51:06.981Z,9.47
2019-01-18T04:53:35.254Z,9.00
2019-01-18T04:56:03.635Z,8.39
2019-01-18T04:58:31.917Z,8.83
2019-01-18T05:01:00.158Z,9.55
2019-01-18T05:03:28.441Z,9.55
2019-01-18T05:05:56.708Z,9.05
2019-01-18T05:08:25.146Z,9.15
2019-01-18T05:10:53.441Z,9.44
2019-01-18T05:13:21.691Z,8.86
2019-01-18T05:15:49.996Z,9.06
2019-01-18T05:18:18.258Z,9.15
2019-01-18T05:20:46.527Z,8.69
2019-01-18T05:23:14.789Z,9.06
2019-01-18T05:25:43.033Z,9.62
2019-01-18T05:28:11.366Z,9.39
2019-01-18T05:30:39.621Z,9.22
2019-01-18T05:33:07.897Z,8.44
2019-01-18T05:35:36.182Z,8.73
2019-01-18T05:38:04.508Z,8.72
2019-01-18T05:40:32.748Z,8.54
2019-01-18T05:43:00.991Z,8.87
2019-01-18T05:45:29.260Z,8.49
2019-01-18T05:47:57.543Z,8.45
2019-01-18T05:50:27.480Z,8.89
2019-01-18T05:52:55.858Z,8.18
2019-01-18T05:55:24.117Z,8.54
2019-01-18T05:57:52.414Z,8.54
2019-01-18T06:00:40.327Z,8.40
2019-01-18T06:03:08.649Z,8.48
2019-01-18T06:05:39.830Z,7.69
2019-01-18T06:08:08.293Z,7.23
2019-01-18T06:10:36.624Z,8.44
2019-01-18T06:13:05.463Z,7.90
2019-01-18T06:15:33.728Z,8.57
2019-01-18T06:18:02.020Z,9.24
2019-01-18T06:20:30.370Z,9.13
2019-01-18T06:22:58.664Z,9.15
2019-01-18T06:25:26.974Z,8.64
2019-01-18T06:27:55.372Z,9.16
2019-01-18T06:30:23.671Z,8.58
2019-01-18T06:32:51.923Z,8.45
2019-01-18T06:35:20.280Z,10.04
2019-01-18T06:37:48.545Z,8.48
2019-01-18T06:40:23.329Z,8.56
2019-01-18T06:42:51.703Z,8.56
2019-01-18T06:45:25.827Z,8.92
2019-01-18T06:47:54.095Z,9.07
2019-01-18T06:50:22.352Z,8.86
2019-01-18T06:52:50.649Z,9.16
2019-01-18T06:55:18.976Z,9.00
2019-01-18T06:57:47.656Z,9.66
2019-01-18T07:00:19.073Z,9.56
2019-01-18T07:02:47.474Z,8.68
2019-01-18T07:05:15.745Z,8.16
2019-01-18T07:07:44.068Z,8.89
2019-01-18T07:10:20.619Z,8.65
2019-01-18T07:12:45.595Z,8.28
2019-01-18T07:15:14.172Z,8.81
2019-01-18T07:17:42.460Z,8.90
2019-01-18T07:20:15.919Z,9.07
2019-01-18T07:22:44.361Z,9.29
2019-01-18T07:25:15.650Z,9.43
2019-01-18T07:27:43.992Z,9.19
2019-01-18T07:30:29.918Z,9.07
2019-01-18T07:32:58.176Z,8.95
2019-01-18T07:35:26.510Z,8.52
2019-01-18T07:37:54.777Z,10.30
2019-01-18T07:40:23.037Z,9.44
2019-01-18T07:42:51.380Z,8.67
2019-01-18T07:45:27.887Z,8.20
2019-01-18T07:47:56.224Z,7.79
2019-01-18T07:50:24.578Z,8.18
2019-01-18T07:52:52.897Z,7.97
2019-01-18T07:55:21.239Z,8.97
2019-01-18T07:57:49.493Z,9.76
2019-01-18T08:00:23.096Z,9.44
2019-01-18T08:02:51.494Z,9.06
2019-01-18T08:05:20.683Z,8.93
2019-01-18T08:07:48.968Z,8.98
2019-01-18T08:10:20.388Z,9.54
2019-01-18T08:12:48.626Z,9.14
2019-01-18T08:15:19.498Z,9.08
2019-01-18T08:17:47.765Z,10.17
2019-01-18T08:20:23.668Z,8.28
2019-01-18T08:22:52.046Z,9.04
2019-01-18T08:25:20.316Z,8.47
2019-01-18T08:27:48.642Z,8.05
2019-01-18T08:30:19.223Z,8.81
2019-01-18T08:32:47.497Z,10.56
2019-01-18T08:35:17.708Z,11.64
2019-01-18T08:37:46.044Z,9.86
2019-01-18T08:40:20.027Z,9.16
2019-01-18T08:42:48.323Z,10.04
2019-01-18T08:45:25.910Z,8.84
2019-01-18T08:47:54.295Z,9.49
2019-01-18T08:50:22.626Z,8.60
2019-01-18T08:52:51.068Z,9.58
2019-01-18T08:55:19.433Z,9.81
2019-01-18T08:57:47.666Z,10.12
2019-01-18T09:00:19.135Z,9.23
2019-01-18T09:02:47.465Z,9.18
2019-01-18T09:05:18.864Z,10.19
2019-01-18T09:07:47.120Z,10.21
2019-01-18T09:10:17.929Z,10.34
2019-01-18T09:12:46.248Z,12.23
2019-01-18T09:15:14.582Z,9.68
2019-01-18T09:17:42.943Z,10.43
2019-01-18T09:20:19.386Z,11.30
2019-01-18T09:22:47.662Z,12.51
2019-01-18T09:25:16.308Z,14.16
2019-01-18T09:27:44.612Z,11.99
2019-01-18T09:30:15.615Z,11.09
2019-01-18T09:32:43.961Z,11.02
2019-01-18T09:35:14.677Z,10.87
2019-01-18T09:37:43.272Z,10.62
2019-01-18T09:40:14.446Z,10.75
2019-01-18T09:42:42.713Z,10.72
2019-01-18T09:45:12.946Z,11.31
2019-01-18T09:47:41.945Z,10.91
2019-01-18T09:50:16.512Z,11.05
2019-01-18T09:52:44.953Z,12.01
2019-01-18T09:55:13.386Z,11.52
2019-01-18T09:57:41.646Z,11.99
2019-01-18T10:00:13.119Z,11.12
2019-01-18T10:02:41.421Z,11.07
2019-01-18T10:05:11.807Z,11.08
2019-01-18T10:07:40.164Z,11.93
2019-01-18T10:10:11.651Z,12.27
2019-01-18T10:12:39.916Z,12.57
2019-01-18T10:15:11.500Z,12.55
2019-01-18T10:17:39.747Z,12.30
2019-01-18T10:20:11.362Z,13.21
2019-01-18T10:22:42.877Z,12.66
2019-01-18T10:25:13.329Z,12.29
2019-01-18T10:27:41.698Z,11.96
2019-01-18T10:30:24.605Z,10.89
2019-01-18T10:32:53.096Z,11.57
2019-01-18T10:35:23.097Z,10.82
2019-01-18T10:37:51.459Z,11.02
2019-01-18T10:40:20.009Z,12.08
2019-01-18T10:42:49.279Z,12.03
2019-01-18T10:45:18.941Z,12.04
2019-01-18T10:47:48.006Z,12.22
2019-01-18T10:50:24.839Z,12.35
2019-01-18T10:52:53.200Z,12.10
2019-01-18T10:55:21.484Z,12.25
2019-01-18T10:57:49.772Z,11.58
2019-01-18T11:00:26.542Z,10.74
2019-01-18T11:02:54.825Z,10.61
2019-01-18T11:05:24.145Z,11.02
2019-01-18T11:07:52.401Z,10.67
2019-01-18T11:10:20.943Z,10.85
2019-01-18T11:12:49.392Z,11.87
2019-01-18T11:15:23.201Z,11.87
2019-01-18T11:17:51.478Z,11.58
2019-01-18T11:20:28.897Z,11.49
2019-01-18T11:22:58.860Z,11.41
2019-01-18T11:25:31.723Z,11.97
2019-01-18T11:27:57.215Z,11.90
2019-01-18T11:30:25.591Z,11.40
2019-01-18T11:32:54.015Z,11.97
2019-01-18T11:35:22.357Z,10.69
2019-01-18T11:37:50.726Z,11.94
2019-01-18T11:40:21.263Z,12.51
2019-01-18T11:42:49.622Z,12.60
2019-01-18T11:45:18.316Z,12.05
2019-01-18T11:47:46.596Z,11.69
2019-01-18T11:50:20.444Z,11.82
2019-01-18T11:52:48.687Z,12.16
2019-01-18T11:55:17.034Z,11.86
2019-01-18T11:57:45.423Z,12.01
2019-01-18T12:00:16.905Z,12.61
2019-01-18T12:02:45.337Z,12.88
2019-01-18T12:05:13.548Z,13.06
2019-01-18T12:07:41.889Z,13.14
2019-01-18T12:10:21.365Z,12.90
2019-01-18T12:12:49.733Z,12.17
2019-01-18T12:15:18.062Z,12.43
2019-01-18T12:17:51.647Z,12.24
2019-01-18T12:20:24.793Z,11.90
2019-01-18T12:22:53.066Z,12.33
2019-01-18T12:25:21.397Z,12.59
2019-01-18T12:27:49.753Z,15.22
2019-01-18T12:30:23.673Z,17.13
2019-01-18T12:32:51.931Z,16.61
2019-01-18T12:35:20.214Z,16.50
2019-01-18T12:37:48.470Z,16.04
2019-01-18T12:40:16.729Z,17.16
2019-01-18T12:42:45.006Z,18.62
2019-01-18T12:45:16.351Z,17.97
2019-01-18T12:47:44.703Z,17.24
2019-01-18T12:50:25.168Z,18.47
2019-01-18T12:52:53.666Z,18.95
2019-01-18T12:55:21.959Z,19.65
2019-01-18T12:57:51.714Z,17.74
2019-01-18T13:00:24.943Z,18.80
2019-01-18T13:02:53.301Z,17.62
2019-01-18T13:05:27.452Z,19.44
2019-01-18T13:07:55.792Z,20.84
2019-01-18T13:10:24.191Z,18.02
2019-01-18T13:12:52.515Z,17.48
2019-01-18T13:15:23.981Z,18.97
2019-01-18T13:17:52.310Z,19.40
2019-01-18T13:20:20.692Z,18.53
2019-01-18T13:22:48.907Z,20.90
2019-01-18T13:25:18.356Z,19.63
2019-01-18T13:27:46.705Z,17.55
2019-01-18T13:30:17.893Z,17.26
2019-01-18T13:32:46.614Z,17.70
2019-01-18T13:35:14.944Z,17.51
2019-01-18T13:37:43.272Z,17.62
2019-01-18T13:40:17.159Z,17.45
2019-01-18T13:42:45.424Z,16.79
2019-01-18T13:45:14.251Z,17.54
2019-01-18T13:47:43.650Z,16.84
2019-01-18T13:50:17.527Z,16.30
2019-01-18T13:52:48.760Z,15.99
2019-01-18T13:55:20.689Z,17.15
2019-01-18T13:57:48.956Z,16.67
2019-01-18T14:00:17.318Z,15.22
2019-01-18T14:02:48.505Z,16.36
2019-01-18T14:05:15.733Z,15.10
2019-01-18T14:07:44.051Z,12.90
2019-01-18T14:10:16.859Z,12.96
2019-01-18T14:12:47.927Z,11.80
2019-01-18T14:15:22.718Z,12.92
2019-01-18T14:17:51.145Z,13.56
2019-01-18T14:20:22.118Z,13.04
2019-01-18T14:22:51.326Z,12.17
2019-01-18T14:25:19.698Z,12.71
2019-01-18T14:27:48.045Z,13.84
2019-01-18T14:30:19.595Z,13.65
2019-01-18T14:32:47.927Z,14.01
2019-01-18T14:35:16.289Z,14.98
2019-01-18T14:37:44.647Z,14.42
2019-01-18T14:40:15.496Z,14.25
2019-01-18T14:42:43.787Z,14.57
2019-01-18T14:45:18.067Z,14.67
2019-01-18T14:47:46.337Z,14.84
2019-01-18T14:50:20.024Z,13.09
2019-01-18T14:52:48.672Z,12.17
2019-01-18T14:55:17.003Z,13.42
2019-01-18T14:57:45.343Z,14.28
2019-01-18T15:00:19.619Z,12.83
2019-01-18T15:02:47.905Z,12.30
2019-01-18T15:05:16.241Z,12.62
2019-01-18T15:07:44.546Z,12.46
2019-01-18T15:10:18.709Z,13.28
2019-01-18T15:12:48.831Z,12.92
2019-01-18T15:15:17.197Z,13.36
2019-01-18T15:17:48.515Z,12.27
2019-01-18T15:20:19.655Z,10.92
2019-01-18T15:22:48.574Z,12.18
2019-01-18T15:25:16.912Z,12.53
2019-01-18T15:27:45.383Z,12.08
2019-01-18T15:30:20.020Z,11.91
2019-01-18T15:32:48.456Z,12.15
2019-01-18T15:35:20.697Z,12.03
2019-01-18T15:37:49.207Z,11.29
2019-01-18T15:40:22.625Z,11.82
2019-01-18T15:42:50.994Z,11.74
2019-01-18T15:45:19.272Z,12.45
2019-01-18T15:47:47.597Z,12.64
2019-01-18T15:50:18.990Z,11.05
2019-01-18T15:52:47.374Z,11.91
2019-01-18T15:55:17.434Z,11.07
2019-01-18T15:57:45.698Z,12.68
2019-01-18T16:00:17.146Z,12.26
2019-01-18T16:02:45.486Z,12.74
2019-01-18T16:05:13.815Z,12.65
2019-01-18T16:07:42.071Z,12.87
2019-01-18T16:10:12.987Z,12.46
2019-01-18T16:12:41.242Z,11.79
2019-01-18T16:15:12.479Z,11.58
2019-01-18T16:17:41.083Z,10.71
2019-01-18T16:20:12.519Z,10.63
2019-01-18T16:22:41.016Z,10.62
2019-01-18T16:25:12.449Z,10.92
2019-01-18T16:27:40.839Z,9.96
2019-01-18T16:30:12.503Z,11.24
2019-01-18T16:32:40.763Z,11.05
2019-01-18T16:35:11.387Z,11.32
2019-01-18T16:37:39.658Z,10.48
2019-01-18T16:40:11.362Z,11.54
2019-01-18T16:42:39.846Z,11.77
2019-01-18T16:45:10.944Z,12.12
2019-01-18T16:47:39.293Z,10.91
2019-01-18T16:50:10.717Z,11.33
2019-01-18T16:52:38.985Z,11.36
2019-01-18T16:55:14.005Z,11.59
2019-01-18T16:57:42.428Z,10.96
2019-01-18T17:00:16.666Z,10.58
2019-01-18T17:02:44.952Z,11.13
2019-01-18T17:05:13.206Z,10.14
2019-01-18T17:07:41.505Z,10.32
2019-01-18T17:10:15.503Z,9.61
2019-01-18T17:12:43.752Z,8.95
2019-01-18T17:15:13.951Z,9.59
2019-01-18T17:17:42.360Z,10.50
2019-01-18T17:20:19.643Z,9.64
2019-01-18T17:22:47.975Z,9.57
2019-01-18T17:25:16.273Z,9.92
2019-01-18T17:27:44.548Z,8.94
2019-01-18T17:30:15.962Z,10.31
2019-01-18T17:32:44.244Z,10.56
2019-01-18T17:35:28.000Z,10.50
2019-01-18T17:38:02.141Z,9.71
2019-01-18T17:40:33.935Z,9.76
2019-01-18T17:43:10.665Z,9.77
2019-01-18T17:45:51.023Z,9.58
2019-01-18T17:48:36.820Z,9.15
2019-01-18T17:51:20.186Z,9.32
2019-01-18T17:53:51.652Z,9.28
2019-01-18T17:56:40.833Z,9.51
2019-01-18T17:59:12.257Z,10.10
2019-01-18T18:01:52.499Z,10.09
2019-01-18T18:04:52.342Z,9.75
2019-01-18T18:07:26.287Z,10.04
2019-01-18T18:10:03.537Z,9.50
2019-01-18T18:12:47.809Z,9.57
2019-01-18T18:15:25.181Z,8.97
2019-01-18T18:17:59.214Z,9.78
2019-01-18T18:20:42.599Z,10.13
2019-01-18T18:23:19.747Z,10.14
2019-01-18T18:26:00.073Z,10.15
2019-01-18T18:28:34.250Z,10.26
2019-01-18T18:31:11.671Z,10.25
2019-01-18T18:34:10.190Z,9.46
2019-01-18T18:36:53.389Z,10.20
2019-01-18T18:39:58.011Z,9.79
2019-01-18T18:42:29.436Z,9.51
2019-01-18T18:45:03.772Z,10.20
2019-01-18T18:47:59.309Z,10.23
2019-01-18T18:51:02.793Z,10.36
2019-01-18T18:53:51.796Z,8.89
2019-01-18T18:56:44.153Z,9.20
2019-01-18T18:59:15.621Z,9.75
2019-01-18T19:02:03.195Z,10.02
2019-01-18T19:04:49.422Z,9.31
2019-01-18T19:07:44.965Z,10.04
2019-01-18T19:10:46.632Z,10.40
2019-01-18T19:13:42.315Z,10.13
2019-01-18T19:16:28.368Z,10.09
2019-01-18T19:19:28.183Z,9.74
2019-01-18T19:22:05.403Z,10.04
2019-01-18T19:25:05.839Z,9.86
2019-01-18T19:27:58.276Z,10.10
2019-01-18T19:30:57.052Z,9.27
2019-01-18T19:33:37.329Z,9.71
2019-01-18T19:36:18.001Z,9.84
2019-01-18T19:39:06.395Z,10.47
2019-01-18T19:42:15.630Z,10.36
2019-01-18T19:44:53.047Z,9.51
2019-01-18T19:47:33.297Z,9.96
2019-01-18T19:50:10.735Z,10.33
2019-01-18T19:52:48.202Z,9.65
2019-01-18T19:55:40.891Z,9.74
2019-01-18T19:58:36.939Z,9.50
2019-01-18T20:01:24.815Z,9.33
2019-01-18T20:04:20.128Z,9.84
2019-01-18T20:07:12.635Z,10.01
2019-01-18T20:10:03.798Z,9.72
2019-01-18T20:12:47.050Z,9.74
2019-01-18T20:15:45.461Z,9.28
2019-01-18T20:18:20.376Z,9.80
2019-01-18T20:21:09.230Z,9.80
2019-01-18T20:23:46.656Z,10.22
2019-01-18T20:26:32.805Z,9.95
2019-01-18T20:29:19.103Z,10.01
2019-01-18T20:32:02.356Z,10.04
2019-01-18T20:34:33.811Z,10.36
2019-01-18T20:37:17.195Z,9.74
2019-01-18T20:39:58.021Z,9.88
2019-01-18T20:42:44.571Z,9.90
2019-01-18T20:45:18.539Z,10.15
2019-01-18T20:48:09.510Z,9.25
2019-01-18T20:50:57.344Z,9.40
2019-01-18T20:53:34.792Z,9.03
2019-01-18T20:56:28.772Z,9.24
2019-01-18T20:59:05.802Z,9.19
2019-01-18T21:01:58.481Z,9.75
2019-01-18T21:04:54.162Z,9.51
2019-01-18T21:07:49.123Z,9.99
2019-01-18T21:10:23.260Z,9.60
2019-01-18T21:12:54.714Z,9.16
2019-01-18T21:15:28.835Z,9.44
2019-01-18T21:18:12.405Z,9.26
2019-01-18T21:20:52.651Z,9.65
2019-01-18T21:23:46.439Z,9.75
2019-01-18T21:26:32.872Z,10.15
2019-01-18T21:29:25.386Z,10.05
2019-01-18T21:32:02.926Z,10.79
2019-01-18T21:34:46.293Z,9.59
2019-01-18T21:37:26.503Z,10.34
2019-01-18T21:40:00.561Z,9.51
2019-01-18T21:42:40.975Z,10.69
2019-01-18T21:45:35.034Z,10.17
2019-01-18T21:48:12.810Z,10.29
2019-01-18T21:51:05.324Z,9.78
2019-01-18T21:53:39.246Z,10.25
2019-01-18T21:56:19.860Z,9.79
2019-01-18T21:58:56.862Z,8.78
2019-01-18T22:01:52.096Z,8.40
2019-01-18T22:04:40.552Z,8.49
2019-01-18T22:07:11.588Z,8.19
2019-01-18T22:10:07.176Z,8.86
2019-01-18T22:12:47.544Z,9.27
2019-01-18T22:15:24.603Z,9.03
2019-01-18T22:18:21.344Z,8.90
2019-01-18T22:21:18.417Z,9.34
2019-01-18T22:23:49.894Z,8.48
2019-01-18T22:26:42.708Z,8.61
2019-01-18T22:29:20.018Z,8.17
2019-01-18T22:31:54.411Z,8.83
2019-01-18T22:34:37.915Z,8.57
2019-01-18T22:37:15.282Z,8.77
2019-01-18T22:40:01.268Z,8.19
2019-01-18T22:42:41.909Z,8.17
2019-01-18T22:45:34.341Z,8.67
2019-01-18T22:48:25.409Z,9.35
2019-01-18T22:50:59.711Z,9.37
2019-01-18T22:53:50.764Z,9.66
2019-01-18T22:56:40.282Z,9.56
2019-01-18T22:59:31.225Z,9.50
2019-01-18T23:02:26.676Z,9.46
2019-01-18T23:05:10.225Z,9.21
2019-01-18T23:08:03.670Z,9.53
2019-01-18T23:10:37.638Z,9.85
2019-01-18T23:13:12.040Z,9.79
2019-01-18T23:15:48.979Z,9.02
2019-01-18T23:18:23.328Z,8.60
2019-01-18T23:21:14.443Z,8.39
2019-01-18T23:24:08.577Z,9.27
2019-01-18T23:27:01.047Z,9.42
2019-01-18T23:29:38.267Z,8.40
2019-01-18T23:32:30.556Z,9.37
2019-01-18T23:35:21.195Z,8.96
2019-01-18T23:37:58.351Z,8.46
2019-01-18T23:40:32.726Z,8.32
2019-01-18T23:43:16.021Z,8.63
2019-01-18T23:46:08.645Z,8.17
2019-01-18T23:48:58.113Z,8.60
2019-01-18T23:51:32.103Z,8.30
2019-01-18T23:54:06.103Z,9.46
2019-01-18T23:56:43.511Z,9.31
2019-01-18T23:59:14.953Z,8.74
